Time;durP1;ratioP1;P1;durP2;ratioP2;P2;SDS_P1;SDS_P2;PMS_P1;PMS_P2;Temp;Humidity;BMP_temperature;BMP_pressure;BME280_temperature;BME280_humidity;BME280_pressure;Samples;Min_cycle;Max_cycle;Signal;HPM_P1;HPM_P2
2022/01/02 00:00:44;;;;;;;250.18;81.90;;;;;;;0.47;100.00;99095.75;5091849;28;20469;-81
2022/01/02 00:03:19;;;;;;;220.32;77.93;;;;;;;0.49;100.00;99086.44;5107633;28;20380;-77
2022/01/02 00:05:45;;;;;;;316.87;82.50;;;;;;;0.47;100.00;99093.88;5104675;28;20088;-76
2022/01/02 00:08:11;;;;;;;250.65;77.22;;;;;;;0.50;100.00;99090.78;5113984;28;20024;-78
2022/01/02 00:10:47;;;;;;;525.83;96.20;;;;;;;0.60;100.00;99087.69;5107151;28;20472;-76
2022/01/02 00:13:33;;;;;;;287.70;74.63;;;;;;;0.60;100.00;99087.69;5107221;28;20015;-76
2022/01/02 00:16:06;;;;;;;261.35;73.55;;;;;;;0.71;100.00;99089.81;5103467;28;20106;-77
2022/01/02 00:18:37;;;;;;;355.35;81.60;;;;;;;0.77;100.00;99083.59;5110511;28;20062;-77
2022/01/02 00:21:07;;;;;;;376.23;86.38;;;;;;;0.78;100.00;99092.53;5107250;28;20376;-75
2022/01/02 00:23:48;;;;;;;412.77;82.72;;;;;;;0.81;100.00;99079.47;5110625;28;20023;-75
2022/01/02 00:26:17;;;;;;;267.42;74.50;;;;;;;0.79;100.00;99086.91;5108307;28;20138;-76
2022/01/02 00:28:46;;;;;;;284.50;77.28;;;;;;;0.69;100.00;99078.41;5107204;28;20024;-76
2022/01/02 00:31:12;;;;;;;330.65;77.20;;;;;;;0.69;100.00;99075.72;5110359;28;20126;-77
2022/01/02 00:33:39;;;;;;;273.70;72.80;;;;;;;0.73;100.00;99078.81;5107885;28;20505;-75
2022/01/02 00:36:05;;;;;;;283.15;66.15;;;;;;;0.74;100.00;99073.25;5103703;28;20034;-74
2022/01/02 00:38:30;;;;;;;294.17;62.72;;;;;;;0.66;100.00;99070.72;5108569;28;20404;-74
2022/01/02 00:40:57;;;;;;;481.50;75.57;;;;;;;0.65;100.00;99061.03;5116231;28;20043;-75
2022/01/02 00:43:48;;;;;;;291.63;63.08;;;;;;;0.57;100.00;99066.56;5111204;28;20045;-75
2022/01/02 00:46:15;;;;;;;381.83;68.47;;;;;;;0.64;100.00;99075.50;5108303;28;20032;-77
2022/01/02 00:48:44;;;;;;;229.80;62.40;;;;;;;0.58;100.00;99072.78;5109891;28;20434;-77
2022/01/02 00:51:21;;;;;;;323.65;64.57;;;;;;;0.62;100.00;99064.13;5107625;28;20020;-75
2022/01/02 00:53:47;;;;;;;138.52;52.25;;;;;;;0.52;100.00;99056.44;5110702;28;20160;-75
2022/01/02 00:56:17;;;;;;;386.67;63.30;;;;;;;0.47;100.00;99055.41;5110959;28;20504;-75
2022/01/02 00:58:51;;;;;;;182.18;56.40;;;;;;;0.52;100.00;99058.28;5110721;28;20036;-76
2022/01/02 01:01:27;;;;;;;191.45;57.42;;;;;;;0.57;100.00;99055.81;5111158;28;20042;-77
2022/01/02 01:03:54;;;;;;;231.90;57.03;;;;;;;0.61;100.00;99061.63;5111019;28;20039;-76
2022/01/02 01:06:25;;;;;;;157.85;52.85;;;;;;;0.53;100.00;99052.69;5111421;28;20655;-75
2022/01/02 01:08:56;;;;;;;300.23;59.30;;;;;;;0.48;100.00;99043.59;5111198;28;20034;-75
2022/01/02 01:11:25;;;;;;;281.63;55.15;;;;;;;0.40;100.00;99041.09;5110369;28;20024;-73
2022/01/02 01:13:51;;;;;;;345.20;62.40;;;;;;;0.44;100.00;99034.25;5110225;28;20042;-74
2022/01/02 01:16:18;;;;;;;352.85;59.50;;;;;;;0.29;100.00;99039.81;5110721;28;20677;-74
2022/01/02 01:18:44;;;;;;;332.45;61.15;;;;;;;0.24;100.00;99041.47;5110353;28;20023;-74
2022/01/02 01:21:09;;;;;;;248.10;63.35;;;;;;;0.10;100.00;99042.44;5110607;28;20029;-74
2022/01/02 01:23:35;;;;;;;324.67;70.30;;;;;;;0.09;100.00;99036.25;5111096;28;20024;-76
2022/01/02 01:26:06;;;;;;;429.75;78.97;;;;;;;0.07;100.00;99038.28;5110808;28;20036;-74
2022/01/02 01:28:31;;;;;;;294.48;69.80;;;;;;;0.24;100.00;99028.00;5111104;28;20031;-77
2022/01/02 01:30:57;;;;;;;399.02;72.50;;;;;;;0.29;100.00;99028.22;5111140;28;20125;-75
2022/01/02 01:33:22;;;;;;;219.48;64.43;;;;;;;0.40;100.00;99033.03;5111407;28;20031;-76
2022/01/02 01:35:47;;;;;;;264.67;67.95;;;;;;;0.30;100.00;99032.59;5111060;28;20027;-74
2022/01/02 01:38:13;;;;;;;336.90;75.70;;;;;;;0.16;100.00;99025.53;5109079;28;20027;-75
2022/01/02 01:40:51;;;;;;;204.52;52.47;;;;;;;0.16;100.00;99033.59;5109887;28;20027;-74
2022/01/02 01:43:17;;;;;;;231.70;53.53;;;;;;;-0.08;100.00;99040.31;5108869;28;20102;-75
2022/01/02 01:45:43;;;;;;;387.05;64.63;;;;;;;-0.06;100.00;99039.06;5110113;28;20076;-75
2022/01/02 01:48:08;;;;;;;316.88;59.55;;;;;;;0.03;100.00;99036.22;5110326;28;20058;-73
2022/01/02 01:50:42;;;;;;;336.42;57.83;;;;;;;-0.07;100.00;99034.75;5109102;28;20518;-77
2022/01/02 01:53:08;;;;;;;187.95;50.72;;;;;;;0.09;100.00;99030.88;5109137;28;20032;-76
2022/01/02 01:55:36;;;;;;;290.10;58.00;;;;;;;0.07;100.00;99026.72;5109558;28;20139;-75
2022/01/02 01:58:03;;;;;;;232.55;52.42;;;;;;;0.13;100.00;99020.50;5109912;28;20027;-75
2022/01/02 02:00:29;;;;;;;230.65;54.75;;;;;;;0.13;100.00;99009.75;5113326;28;20016;-73
2022/01/02 02:02:56;;;;;;;197.40;51.75;;;;;;;0.24;100.00;99010.03;5113826;28;20030;-74
2022/01/02 02:05:22;;;;;;;248.98;52.97;;;;;;;0.28;100.00;99016.63;5114165;28;20042;-76
2022/01/02 02:07:48;;;;;;;318.75;55.83;;;;;;;0.33;100.00;99011.47;5114798;28;20543;-75
2022/01/02 02:10:28;;;;;;;149.52;49.38;;;;;;;0.38;100.00;99005.47;5114285;28;20028;-75
2022/01/02 02:12:56;;;;;;;310.08;59.53;;;;;;;0.35;100.00;98998.66;5114123;28;20503;-75
2022/01/02 02:15:23;;;;;;;201.23;54.20;;;;;;;0.42;100.00;99009.41;5114193;28;20541;-75
2022/01/02 02:17:50;;;;;;;255.45;51.58;;;;;;;0.46;100.00;99005.28;5114187;28;20035;-75
2022/01/02 02:20:28;;;;;;;216.45;49.55;;;;;;;0.41;100.00;99002.38;5115984;28;20033;-75
2022/01/02 02:22:55;;;;;;;265.42;50.60;;;;;;;0.41;100.00;99002.38;5119105;28;20026;-75
2022/01/02 02:25:31;;;;;;;176.15;44.47;;;;;;;0.43;100.00;98998.47;5115240;28;20555;-75
2022/01/02 02:28:01;;;;;;;310.10;52.88;;;;;;;0.36;100.00;99004.84;5114644;28;20702;-75
2022/01/02 02:30:30;;;;;;;294.83;51.38;;;;;;;0.32;100.00;99003.59;5114368;28;20441;-76
2022/01/02 02:32:57;;;;;;;166.68;49.47;;;;;;;0.35;100.00;98997.81;5117514;28;20042;-75
2022/01/02 02:35:23;;;;;;;163.57;48.83;;;;;;;0.36;100.00;98997.63;5114864;28;20035;-75
2022/01/02 02:37:48;;;;;;;205.93;48.28;;;;;;;0.44;100.00;98997.41;5114070;28;20027;-75
2022/01/02 02:40:17;;;;;;;176.38;45.45;;;;;;;0.42;100.00;98993.28;5113528;28;20031;-74
2022/01/02 02:42:57;;;;;;;277.77;43.70;;;;;;;0.33;100.00;98984.59;5113285;28;20131;-76
2022/01/02 02:51:10;;;;;;;175.10;47.05;;;;;;;0.16;100.00;98982.50;5113598;28;20037;-75
2022/01/02 02:53:39;;;;;;;222.23;46.08;;;;;;;0.16;100.00;98977.09;5113091;28;20468;-75
2022/01/02 02:56:15;;;;;;;351.67;46.28;;;;;;;0.00;100.00;98971.03;5112956;28;20504;-76
2022/01/02 02:58:44;;;;;;;194.18;44.58;;;;;;;0.12;100.00;98971.31;5113051;28;20476;-75
2022/01/02 03:01:12;;;;;;;256.75;46.47;;;;;;;0.22;100.00;98960.16;5112936;28;20031;-75
2022/01/02 03:03:39;;;;;;;302.83;46.53;;;;;;;0.20;100.00;98957.66;5112995;28;20053;-75
2022/01/02 03:06:05;;;;;;;354.38;46.28;;;;;;;0.12;100.00;98949.78;5112957;28;20480;-80
2022/01/02 03:08:31;;;;;;;151.63;42.47;;;;;;;0.29;100.00;98955.59;5113289;28;20035;-75
2022/01/02 03:10:57;;;;;;;265.30;42.08;;;;;;;0.00;100.00;98952.22;5111718;28;20024;-76
2022/01/02 03:13:23;;;;;;;350.55;46.53;;;;;;;-0.05;100.00;98956.56;5112755;28;20031;-75
2022/01/02 03:15:49;;;;;;;311.05;44.78;;;;;;;-0.09;100.00;98948.06;5112765;28;20100;-75
2022/01/02 03:18:14;;;;;;;412.05;50.42;;;;;;;-0.14;100.00;98950.56;5113780;28;20031;-75
2022/01/02 03:20:40;;;;;;;272.60;42.72;;;;;;;-0.05;100.00;98943.13;5111477;28;20506;-75
2022/01/02 03:23:05;;;;;;;244.57;42.42;;;;;;;0.06;100.00;98949.78;5112335;28;20060;-76
2022/01/02 03:25:30;;;;;;;303.08;46.60;;;;;;;-0.06;100.00;98950.34;5112822;28;20112;-77
2022/01/02 03:27:56;;;;;;;169.80;39.55;;;;;;;-0.02;100.00;98948.94;5112343;28;20027;-74
2022/01/02 03:30:21;;;;;;;319.05;44.75;;;;;;;0.03;100.00;98942.13;5112733;28;20020;-74
2022/01/02 03:32:47;;;;;;;259.70;40.75;;;;;;;-0.02;100.00;98938.16;5112493;28;20055;-75
2022/01/02 03:35:12;;;;;;;224.35;39.13;;;;;;;0.03;100.00;98923.28;5112522;28;20023;-74
2022/01/02 03:37:46;;;;;;;277.75;38.15;;;;;;;-0.15;100.00;98924.69;5112776;28;20059;-75
2022/01/02 03:40:11;;;;;;;339.75;42.60;;;;;;;-0.04;100.00;98920.59;5112191;28;20039;-76
2022/01/02 03:42:37;;;;;;;277.73;40.65;;;;;;;-0.11;100.00;98923.25;5112209;28;20027;-76
2022/01/02 03:45:05;;;;;;;267.55;40.92;;;;;;;-0.08;100.00;98917.47;5112323;28;20103;-73
2022/01/02 03:47:30;;;;;;;145.13;38.95;;;;;;;-0.04;100.00;98913.34;5111112;28;20457;-74
2022/01/02 03:49:59;;;;;;;236.25;44.13;;;;;;;0.08;100.00;98912.75;5110904;28;20023;-74
2022/01/02 03:52:25;;;;;;;214.73;41.60;;;;;;;0.07;100.00;98908.38;5112020;28;20064;-76
2022/01/02 03:54:51;;;;;;;327.67;44.40;;;;;;;0.12;100.00;98903.25;5111876;28;20403;-74
2022/01/02 03:57:17;;;;;;;273.38;45.80;;;;;;;0.06;100.00;98901.38;5112033;27;20126;-74
2022/01/02 03:59:43;;;;;;;196.00;44.25;;;;;;;0.19;100.00;98901.38;5112046;28;20412;-76
2022/01/02 04:02:08;;;;;;;416.88;59.60;;;;;;;0.18;100.00;98903.25;5111809;27;20036;-74
2022/01/02 04:04:34;;;;;;;198.48;50.50;;;;;;;0.21;100.00;98907.38;5111889;28;20867;-77
2022/01/02 04:06:59;;;;;;;200.95;52.20;;;;;;;0.24;100.00;98893.53;5111972;28;20055;-75
2022/01/02 04:09:24;;;;;;;179.05;50.97;;;;;;;0.22;100.00;98891.03;5112057;28;20028;-73
2022/01/02 04:11:50;;;;;;;329.33;56.85;;;;;;;0.28;100.00;98906.34;5112479;28;20020;-77
2022/01/02 04:14:15;;;;;;;264.35;56.47;;;;;;;0.20;100.00;98897.66;5112931;28;20104;-75
2022/01/02 04:16:44;;;;;;;163.30;52.85;;;;;;;0.29;100.00;98899.09;5111824;28;20020;-74
2022/01/02 04:19:09;;;;;;;132.93;49.55;;;;;;;0.32;100.00;98896.00;5111569;28;20026;-76
2022/01/02 04:21:35;;;;;;;178.73;52.22;;;;;;;0.23;100.00;98891.84;5099189;28;20024;-75
2022/01/02 04:24:00;;;;;;;164.07;49.45;;;;;;;0.23;100.00;98883.78;5109395;28;20023;-79
2022/01/02 04:26:26;;;;;;;143.05;44.22;;;;;;;0.21;100.00;98873.25;5113904;28;20032;-74
2022/01/02 04:28:51;;;;;;;172.13;47.90;;;;;;;0.23;100.00;98873.84;5111679;28;20032;-76
2022/01/02 04:31:17;;;;;;;118.30;44.30;;;;;;;0.15;100.00;98871.38;5111779;28;20032;-78
2022/01/02 04:33:42;;;;;;;344.10;54.67;;;;;;;0.09;100.00;98874.06;5113198;28;20035;-77
2022/01/02 04:36:07;;;;;;;123.63;43.95;;;;;;;0.11;100.00;98872.81;5116038;28;20085;-73
2022/01/02 04:38:37;;;;;;;100.05;42.03;;;;;;;0.10;100.00;98876.53;5109318;28;20024;-75
2022/01/02 04:41:03;;;;;;;174.00;43.42;;;;;;;-0.01;100.00;98863.72;5091265;28;20480;-77
2022/01/02 04:43:29;;;;;;;245.30;48.88;;;;;;;-0.12;100.00;98864.31;5090648;28;20043;-78
2022/01/02 04:45:56;;;;;;;115.65;44.13;;;;;;;-0.06;100.00;98867.00;5090580;28;20032;-76
2022/01/02 04:48:22;;;;;;;147.73;47.13;;;;;;;-0.04;100.00;98864.97;5090258;28;20069;-75
2022/01/02 04:50:48;;;;;;;132.95;44.70;;;;;;;-0.06;100.00;98872.38;5090664;28;20024;-76
2022/01/02 04:53:14;;;;;;;129.98;41.65;;;;;;;-0.08;100.00;98884.38;5090421;28;20027;-75
2022/01/02 04:55:39;;;;;;;121.10;41.90;;;;;;;-0.07;100.00;98880.66;5089882;28;20378;-77
2022/01/02 04:58:05;;;;;;;127.88;39.80;;;;;;;-0.11;100.00;98877.56;5090343;28;20051;-75
2022/01/02 05:00:31;;;;;;;99.60;38.47;;;;;;;-0.09;100.00;98888.09;5090319;28;20034;-75
2022/01/02 05:02:56;;;;;;;159.68;40.90;;;;;;;-0.18;100.00;98889.31;5090029;28;20107;-75
2022/01/02 05:05:22;;;;;;;149.43;40.13;;;;;;;-0.27;100.00;98893.22;5090501;28;20370;-76
2022/01/02 05:07:47;;;;;;;126.05;37.30;;;;;;;-0.27;100.00;98901.28;5091237;28;20036;-76
2022/01/02 05:10:13;;;;;;;233.13;41.67;;;;;;;-0.30;100.00;98902.53;5090620;28;20556;-75
2022/01/02 05:12:39;;;;;;;202.35;39.45;;;;;;;-0.41;100.00;98889.69;5095151;28;20072;-76
2022/01/02 05:15:05;;;;;;;168.52;40.13;;;;;;;-0.38;100.00;98881.22;5107441;28;20028;-75
2022/01/02 05:17:31;;;;;;;123.55;37.60;;;;;;;-0.35;100.00;98894.25;5089760;28;20028;-74
2022/01/02 05:19:56;;;;;;;84.75;33.70;;;;;;;-0.38;100.00;98875.84;5089955;28;20377;-74
2022/01/02 05:22:22;;;;;;;90.30;30.13;;;;;;;-0.38;100.00;98878.53;5089721;28;20028;-76
2022/01/02 05:24:47;;;;;;;90.65;29.63;;;;;;;-0.47;100.00;98874.34;5089747;28;20540;-76
2022/01/02 05:27:13;;;;;;;107.03;30.95;;;;;;;-0.59;100.00;98866.06;5089626;28;20039;-75
2022/01/02 05:29:39;;;;;;;121.20;31.80;;;;;;;-0.60;100.00;98869.81;5089743;28;20019;-77
2022/01/02 05:32:04;;;;;;;135.18;33.22;;;;;;;-0.69;100.00;98859.44;5101171;28;20476;-74
2022/01/02 05:34:32;;;;;;;93.28;29.70;;;;;;;-0.62;100.00;98862.94;5109202;28;20184;-74
2022/01/02 05:36:57;;;;;;;110.68;31.42;;;;;;;-0.58;100.00;98864.22;5109581;28;20063;-77
2022/01/02 05:39:23;;;;;;;84.93;30.60;;;;;;;-0.66;100.00;98865.19;5110259;28;20468;-76
2022/01/02 05:41:51;;;;;;;170.27;34.53;;;;;;;-0.66;100.00;98862.53;5109824;28;20424;-73
2022/01/02 05:44:17;;;;;;;84.05;30.70;;;;;;;-0.63;100.00;98862.13;5109472;28;20597;-76
2022/01/02 05:46:44;;;;;;;83.28;32.53;;;;;;;-0.72;100.00;98859.84;5109949;28;20110;-74
2022/01/02 05:49:10;;;;;;;106.22;32.80;;;;;;;-0.79;100.00;98865.19;5110287;28;20020;-74
2022/01/02 05:51:37;;;;;;;185.35;34.10;;;;;;;-0.91;100.00;98866.78;5110118;28;20022;-74
2022/01/02 05:54:06;;;;;;;119.70;37.00;;;;;;;-0.91;100.00;98855.22;5110575;28;20020;-75
2022/01/02 05:56:32;;;;;;;95.88;34.30;;;;;;;-0.77;100.00;98864.97;5110362;28;20142;-75
2022/01/02 05:58:57;;;;;;;152.25;35.45;;;;;;;-0.89;100.00;98858.50;5109985;28;20157;-75
2022/01/02 06:01:23;;;;;;;95.00;32.85;;;;;;;-0.79;100.00;98850.91;5110345;28;20023;-76
2022/01/02 06:03:48;;;;;;;117.38;31.88;;;;;;;-0.70;100.00;98850.53;5110362;28;20036;-76
2022/01/02 06:06:15;;;;;;;82.32;30.25;;;;;;;-0.77;100.00;98836.25;5110110;28;20027;-76
2022/01/02 06:08:40;;;;;;;58.85;30.50;;;;;;;-0.77;100.00;98846.16;5110440;28;20027;-76
2022/01/02 06:11:06;;;;;;;76.53;29.85;;;;;;;-0.61;100.00;98830.53;5109475;28;20491;-74
2022/01/02 06:13:31;;;;;;;196.15;33.05;;;;;;;-0.72;100.00;98838.34;5108571;28;20024;-73
2022/01/02 06:16:00;;;;;;;104.20;33.35;;;;;;;-0.71;100.00;98840.81;5113019;28;20020;-75
2022/01/02 06:18:25;;;;;;;81.72;31.00;;;;;;;-0.66;100.00;98853.66;5112905;28;20035;-75
2022/01/02 06:20:51;;;;;;;205.70;36.63;;;;;;;-0.62;100.00;98846.84;5107892;28;20040;-75
2022/01/02 06:23:16;;;;;;;305.40;43.22;;;;;;;-0.64;100.00;98848.91;5110193;28;20015;-74
2022/01/02 06:25:43;;;;;;;90.13;32.50;;;;;;;-0.57;100.00;98842.53;5109886;28;20030;-76
2022/01/02 06:28:09;;;;;;;83.68;32.65;;;;;;;-0.52;100.00;98849.13;5109674;28;20034;-74
2022/01/02 06:30:34;;;;;;;113.07;32.22;;;;;;;-0.52;100.00;98844.59;5109915;28;20031;-74
2022/01/02 06:33:00;;;;;;;136.05;35.13;;;;;;;-0.53;100.00;98848.31;5110097;28;20034;-79
2022/01/02 06:35:31;;;;;;;97.00;33.17;;;;;;;-0.59;100.00;98843.75;5110101;28;20038;-75
2022/01/02 06:37:57;;;;;;;139.50;34.78;;;;;;;-0.67;100.00;98838.56;5110652;28;20039;-75
2022/01/02 06:40:23;;;;;;;131.75;39.63;;;;;;;-0.75;100.00;98838.75;5106141;28;20024;-75
2022/01/02 06:42:49;;;;;;;92.10;37.50;;;;;;;-0.55;100.00;98845.00;5099103;28;20078;-78
2022/01/02 06:45:18;;;;;;;123.65;38.92;;;;;;;-0.56;100.00;98833.44;5112227;28;20480;-74
2022/01/02 06:47:43;;;;;;;82.55;36.47;;;;;;;-0.56;100.00;98827.22;5103365;28;20027;-75
2022/01/02 06:50:09;;;;;;;159.60;37.22;;;;;;;-0.51;100.00;98829.31;5114801;28;20027;-75
2022/01/02 06:52:35;;;;;;;160.23;36.63;;;;;;;-0.45;100.00;98826.66;5113588;28;20080;-75
2022/01/02 06:55:01;;;;;;;105.53;33.80;;;;;;;-0.56;100.00;98814.63;5111099;28;20079;-77
2022/01/02 06:57:26;;;;;;;176.57;36.70;;;;;;;-0.53;100.00;98810.69;5112837;28;20434;-75
2022/01/02 06:59:51;;;;;;;133.82;37.75;;;;;;;-0.45;100.00;98807.84;5112996;28;20476;-74
2022/01/02 07:02:18;;;;;;;175.73;37.38;;;;;;;-0.39;100.00;98811.56;5112570;28;20020;-75
2022/01/02 07:04:43;;;;;;;202.90;35.50;;;;;;;-0.37;100.00;98806.78;5112769;28;20524;-74
2022/01/02 07:07:09;;;;;;;193.30;38.85;;;;;;;-0.39;100.00;98820.44;5110994;28;20142;-74
2022/01/02 07:09:35;;;;;;;182.75;40.58;;;;;;;-0.28;100.00;98813.66;5113208;27;20016;-75
2022/01/02 07:12:01;;;;;;;123.07;38.17;;;;;;;-0.22;100.00;98808.25;5112578;28;20051;-76
2022/01/02 07:14:27;;;;;;;313.60;43.08;;;;;;;-0.27;100.00;98805.38;5112643;28;20568;-76
2022/01/02 07:16:56;;;;;;;136.40;34.35;;;;;;;-0.25;100.00;98807.88;5112436;28;20031;-76
2022/01/02 07:19:22;;;;;;;167.27;33.00;;;;;;;-0.17;100.00;98804.97;5112441;28;20039;-74
2022/01/02 07:21:49;;;;;;;179.55;36.10;;;;;;;-0.22;100.00;98807.47;5112691;28;20034;-75
2022/01/02 07:24:14;;;;;;;135.20;34.67;;;;;;;-0.17;100.00;98794.22;5112356;28;20007;-76
2022/01/02 07:26:40;;;;;;;171.13;32.50;;;;;;;-0.09;100.00;98791.31;5111974;28;20480;-77
2022/01/02 07:29:05;;;;;;;214.20;35.90;;;;;;;-0.15;100.00;98800.19;5112628;28;20031;-76
2022/01/02 07:31:31;;;;;;;104.38;33.55;;;;;;;-0.09;100.00;98800.22;5112314;28;20024;-76
2022/01/02 07:33:56;;;;;;;175.05;33.40;;;;;;;-0.02;100.00;98789.47;5112315;28;20032;-74
2022/01/02 07:36:22;;;;;;;187.85;31.77;;;;;;;-0.15;100.00;98784.91;5112238;28;20031;-74
2022/01/02 07:38:48;;;;;;;187.00;32.83;;;;;;;-0.26;100.00;98790.09;5112717;28;20054;-75
2022/01/02 07:41:14;;;;;;;234.27;37.67;;;;;;;-0.27;100.00;98791.09;5112339;28;20395;-74
2022/01/02 07:43:39;;;;;;;274.73;38.63;;;;;;;-0.19;100.00;98785.53;5112614;28;20188;-76
2022/01/02 07:46:05;;;;;;;142.98;35.50;;;;;;;-0.09;100.00;98786.78;5112881;28;20536;-75
2022/01/02 07:48:30;;;;;;;254.00;38.53;;;;;;;-0.08;100.00;98784.91;5112607;28;20100;-74
2022/01/02 07:50:55;;;;;;;273.08;37.78;;;;;;;-0.04;100.00;98791.53;5112364;27;20028;-74
2022/01/02 07:53:21;;;;;;;203.85;40.13;;;;;;;0.03;100.00;98786.16;5112703;28;20031;-74
2022/01/02 07:55:46;;;;;;;248.05;39.03;;;;;;;0.12;100.00;98779.53;5111898;28;20500;-75
2022/01/02 07:58:12;;;;;;;189.35;37.45;;;;;;;0.10;100.00;98790.47;5111692;28;20028;-74
2022/01/02 08:00:37;;;;;;;92.47;34.38;;;;;;;0.19;100.00;98783.06;5111590;28;20103;-74
2022/01/02 08:03:02;;;;;;;84.20;36.92;;;;;;;0.26;100.00;98782.00;5111748;28;20034;-75
2022/01/02 08:05:28;;;;;;;123.50;34.88;;;;;;;0.34;100.00;98784.47;5106962;28;20490;-74
2022/01/02 08:07:55;;;;;;;108.70;31.65;;;;;;;0.47;100.00;98786.31;5101844;28;20038;-76
2022/01/02 08:10:21;;;;;;;131.77;33.03;;;;;;;0.51;100.00;98784.84;5116054;28;20467;-75
2022/01/02 08:12:46;;;;;;;148.02;30.95;;;;;;;0.60;100.00;98786.25;5112191;28;20039;-76
2022/01/02 08:15:12;;;;;;;64.55;28.05;;;;;;;0.62;100.00;98784.22;5112520;28;20031;-75
2022/01/02 08:17:38;;;;;;;173.45;30.60;;;;;;;0.51;100.00;98792.91;5111873;28;20422;-75
2022/01/02 08:20:04;;;;;;;126.97;28.58;;;;;;;0.50;100.00;98780.50;5110921;28;20016;-76
2022/01/02 08:22:29;;;;;;;127.28;29.73;;;;;;;0.47;100.00;98780.94;5111360;28;20103;-75
2022/01/02 08:24:54;;;;;;;140.00;30.50;;;;;;;0.40;100.00;98772.03;5104360;28;20024;-76
2022/01/02 08:27:20;;;;;;;198.25;30.40;;;;;;;0.32;100.00;98766.88;5125884;28;20034;-84
2022/01/02 08:29:45;;;;;;;109.47;28.85;;;;;;;0.30;100.00;98767.09;5137428;28;20024;-82
2022/01/02 08:32:11;;;;;;;250.25;31.13;;;;;;;0.37;100.00;98778.69;5129304;28;20020;-76
2022/01/02 08:34:36;;;;;;;301.30;36.20;;;;;;;0.19;100.00;98766.91;5109887;28;20035;-77
2022/01/02 08:37:04;;;;;;;176.32;30.95;;;;;;;0.15;100.00;98760.28;5110333;28;20042;-77
2022/01/02 08:39:30;;;;;;;68.30;30.17;;;;;;;0.17;100.00;98759.03;5112320;28;20028;-76
2022/01/02 08:41:56;;;;;;;142.93;32.83;;;;;;;0.22;100.00;98770.00;5110029;28;20506;-78
2022/01/02 08:44:21;;;;;;;145.75;31.27;;;;;;;0.43;100.00;98768.94;5106194;28;20030;-75
2022/01/02 08:46:47;;;;;;;182.70;32.88;;;;;;;0.45;100.00;98762.28;5107898;28;20412;-78
2022/01/02 08:49:12;;;;;;;178.85;31.08;;;;;;;0.43;100.00;98764.38;5110940;28;20031;-75
2022/01/02 08:51:41;;;;;;;190.55;32.60;;;;;;;0.45;100.00;98772.22;5105361;28;20019;-75
2022/01/02 08:54:06;;;;;;;115.20;30.73;;;;;;;0.52;100.00;98781.13;5108523;28;20030;-75
2022/01/02 08:56:32;;;;;;;128.68;30.33;;;;;;;0.58;100.00;98772.19;5110106;28;20159;-77
2022/01/02 08:59:00;;;;;;;150.10;29.15;;;;;;;0.52;100.00;98773.03;5113807;28;20070;-75
2022/01/02 09:01:26;;;;;;;125.88;29.45;;;;;;;0.48;100.00;98759.19;5115499;27;20110;-75
2022/01/02 09:03:51;;;;;;;136.57;27.83;;;;;;;0.43;100.00;98768.94;5113430;28;20107;-77
2022/01/02 09:06:16;;;;;;;111.80;28.17;;;;;;;0.43;100.00;98766.25;5113548;28;20034;-78
2022/01/02 09:08:42;;;;;;;223.05;29.40;;;;;;;0.41;100.00;98750.28;5118536;28;20031;-79
2022/01/02 09:11:10;;;;;;;155.18;28.88;;;;;;;0.49;100.00;98760.84;5127691;28;20020;-81
2022/01/02 09:13:36;;;;;;;103.97;25.40;;;;;;;0.55;100.00;98753.78;5131467;28;20114;-86
2022/01/02 09:16:02;;;;;;;104.97;26.70;;;;;;;0.70;100.00;98742.75;5126922;28;20008;-81
2022/01/02 09:18:33;;;;;;;79.20;25.23;;;;;;;0.83;100.00;98765.06;5118464;28;20054;-82
2022/01/02 09:21:01;;;;;;;160.95;27.23;;;;;;;0.92;100.00;98762.97;5115519;28;20045;-75
2022/01/02 09:23:27;;;;;;;77.88;24.15;;;;;;;1.73;100.00;98750.44;5114801;28;20043;-82
2022/01/02 09:25:52;;;;;;;73.82;25.20;;;;;;;2.10;100.00;98751.38;5114043;28;20059;-75
2022/01/02 09:28:18;;;;;;;115.85;26.17;;;;;;;1.96;100.00;98742.59;5110968;28;20035;-78
2022/01/02 09:30:43;;;;;;;96.22;25.38;;;;;;;1.83;100.00;98745.41;5100394;28;20132;-74
2022/01/02 09:33:08;;;;;;;125.97;26.40;;;;;;;1.56;100.00;98730.47;5110032;28;20365;-74
2022/01/02 09:35:38;;;;;;;139.80;28.25;;;;;;;1.33;100.00;98727.53;5110295;28;20051;-74
2022/01/02 09:38:04;;;;;;;118.72;29.10;;;;;;;1.30;100.00;98723.41;5110605;28;20051;-72
2022/01/02 09:40:31;;;;;;;75.72;26.40;;;;;;;1.37;100.00;98717.97;5109702;28;20055;-75
2022/01/02 09:43:02;;;;;;;173.93;31.55;;;;;;;1.28;100.00;98714.72;5110060;28;20023;-74
2022/01/02 09:45:28;;;;;;;91.85;29.10;;;;;;;1.29;100.00;98715.50;5108307;28;20122;-75
2022/01/02 09:47:54;;;;;;;118.07;29.30;;;;;;;1.23;100.00;98714.53;5106606;28;20051;-74
2022/01/02 09:50:20;;;;;;;132.80;29.63;;;;;;;1.30;100.00;98703.72;5109641;28;20084;-75
2022/01/02 09:52:46;;;;;;;124.20;31.08;;;;;;;1.50;100.00;98704.41;5109662;28;20012;-75
2022/01/02 09:55:12;;;;;;;100.60;31.30;;;;;;;1.71;100.00;98700.50;5109290;28;20040;-75
2022/01/02 09:57:46;;;;;;;73.28;28.70;;;;;;;1.79;100.00;98701.03;5109749;28;20062;-74
2022/01/02 10:00:13;;;;;;;108.55;30.10;;;;;;;1.79;100.00;98698.34;5105566;28;20024;-77
2022/01/02 10:03:02;;;;;;;103.65;30.45;;;;;;;1.65;100.00;98699.50;5113867;28;20054;-77
2022/01/02 10:05:29;;;;;;;76.50;29.95;;;;;;;1.57;100.00;98697.06;5109222;28;20035;-76
2022/01/02 10:07:56;;;;;;;148.50;33.85;;;;;;;1.61;100.00;98687.50;5100906;28;20032;-75
2022/01/02 10:10:32;;;;;;;80.78;31.80;;;;;;;1.74;100.00;98681.19;5108360;28;20103;-76
2022/01/02 10:13:02;;;;;;;115.65;29.02;;;;;;;1.89;100.00;98678.97;5103915;28;20035;-74
2022/01/02 10:15:29;;;;;;;63.65;28.80;;;;;;;2.09;100.00;98687.69;5105363;28;20023;-74
2022/01/02 10:18:06;;;;;;;61.85;29.95;;;;;;;2.22;100.00;98673.25;5106743;28;20488;-77
2022/01/02 10:20:31;;;;;;;61.45;30.70;;;;;;;2.29;100.00;98684.81;5105717;28;20027;-77
2022/01/02 10:23:06;;;;;;;77.95;29.85;;;;;;;2.47;100.00;98672.13;5112369;28;20073;-77
2022/01/02 10:25:48;;;;;;;55.95;28.70;;;;;;;2.72;100.00;98668.50;5109278;28;20030;-77
2022/01/02 10:28:33;;;;;;;54.33;27.42;;;;;;;2.50;100.00;98668.97;5113064;28;20028;-80
2022/01/02 10:31:06;;;;;;;54.88;27.50;;;;;;;2.68;100.00;98654.63;5109380;28;20443;-77
2022/01/02 10:33:46;;;;;;;54.72;29.08;;;;;;;2.74;100.00;98656.41;5110224;28;20020;-75
2022/01/02 10:36:12;;;;;;;76.75;29.40;;;;;;;2.81;100.00;98646.34;5112498;28;20046;-74
2022/01/02 10:38:37;;;;;;;60.80;27.38;;;;;;;2.86;100.00;98649.19;5113703;28;20032;-74
2022/01/02 10:41:03;;;;;;;65.47;29.73;;;;;;;2.61;100.00;98640.38;5109785;28;20102;-75
2022/01/02 10:43:31;;;;;;;97.82;31.27;;;;;;;2.56;100.00;98632.16;5103038;28;20030;-76
2022/01/02 10:46:02;;;;;;;72.22;30.45;;;;;;;2.57;100.00;98622.97;5106755;28;20028;-75
2022/01/02 10:48:40;;;;;;;102.78;36.65;;;;;;;2.78;100.00;98624.38;5105153;28;20118;-75
2022/01/02 10:51:07;;;;;;;71.85;33.13;;;;;;;2.78;100.00;98619.81;5112304;28;20109;-75
2022/01/02 10:53:35;;;;;;;72.38;33.70;;;;;;;2.91;100.00;98616.91;5112277;28;20046;-76
2022/01/02 10:56:02;;;;;;;98.22;35.20;;;;;;;3.01;100.00;98614.47;5109789;28;20039;-73
2022/01/02 10:58:28;;;;;;;74.85;34.55;;;;;;;3.15;100.00;98598.88;5112461;28;20031;-73
2022/01/02 11:01:03;;;;;;;66.38;35.55;;;;;;;3.27;100.00;98601.59;5106011;28;20031;-74
2022/01/02 11:03:30;;;;;;;66.50;36.63;;;;;;;3.21;100.00;98597.94;5110337;28;20030;-76
2022/01/02 11:06:29;;;;;;;93.25;40.63;;;;;;;2.96;100.00;98590.03;5112133;28;20019;-77
2022/01/02 11:08:58;;;;;;;74.85;38.38;;;;;;;3.23;100.00;98588.53;5106980;28;20044;-77
2022/01/02 11:11:24;;;;;;;72.50;37.03;;;;;;;3.10;100.00;98579.84;5112108;28;20026;-75
2022/01/02 11:13:50;;;;;;;77.43;38.63;;;;;;;3.43;100.00;98573.88;5116974;28;20462;-75
2022/01/02 11:16:16;;;;;;;78.72;39.53;;;;;;;3.52;100.00;98578.72;5113460;28;20050;-75